Time;durP1;ratioP1;P1;durP2;ratioP2;P2;SDS_P1;SDS_P2;PMS_P1;PMS_P2;Temp;Humidity;BMP_temperature;BMP_pressure;BME280_temperature;BME280_humidity;BME280_pressure;Samples;Min_cycle;Max_cycle;Signal;HPM_P1;HPM_P2
2023/08/17 00:01:21;;;;;;;3.77;3.37;;;;;;;;;;5092826;28;20445;-64
2023/08/17 00:03:48;;;;;;;8.13;4.83;;;;;;;;;;5092951;28;20534;-64
2023/08/17 00:06:17;;;;;;;5.43;2.87;;;;;;;;;;5092379;28;20468;-64
2023/08/17 00:08:44;;;;;;;4.90;3.00;;;;;;;;;;5092946;28;20522;-64
2023/08/17 00:11:11;;;;;;;5.67;2.93;;;;;;;;;;5092335;28;20534;-65
2023/08/17 00:13:38;;;;;;;3.30;2.70;;;;;;;;;;5092811;28;20790;-64
2023/08/17 00:16:06;;;;;;;4.93;2.80;;;;;;;;;;5092532;28;20552;-64
2023/08/17 00:18:33;;;;;;;5.27;3.30;;;;;;;;;;5093171;28;20446;-65
2023/08/17 00:21:00;;;;;;;8.40;3.43;;;;;;;;;;5092515;28;20536;-65
2023/08/17 00:23:29;;;;;;;5.40;2.90;;;;;;;;;;5096328;28;20441;-65
2023/08/17 00:25:56;;;;;;;4.30;3.27;;;;;;;;;;5096862;28;20481;-65
2023/08/17 00:28:23;;;;;;;5.07;2.50;;;;;;;;;;5096658;28;20440;-65
2023/08/17 00:30:50;;;;;;;4.03;3.00;;;;;;;;;;5096522;28;20442;-65
2023/08/17 00:33:17;;;;;;;4.10;3.00;;;;;;;;;;5097106;28;20438;-64
2023/08/17 00:35:45;;;;;;;3.40;3.20;;;;;;;;;;5096477;28;20440;-65
2023/08/17 00:38:12;;;;;;;5.43;3.63;;;;;;;;;;5096512;28;20448;-65
2023/08/17 00:40:41;;;;;;;6.87;3.30;;;;;;;;;;5096200;28;20531;-65
2023/08/17 00:43:08;;;;;;;8.07;3.13;;;;;;;;;;5096559;28;20536;-65
2023/08/17 00:45:36;;;;;;;4.67;2.83;;;;;;;;;;5096150;28;20561;-65
2023/08/17 00:48:05;;;;;;;3.13;2.67;;;;;;;;;;5096580;28;20427;-65
2023/08/17 00:50:32;;;;;;;3.70;2.60;;;;;;;;;;5096022;28;20448;-65
2023/08/17 00:52:59;;;;;;;3.17;2.90;;;;;;;;;;5096267;28;20533;-65
2023/08/17 00:55:27;;;;;;;10.57;3.93;;;;;;;;;;5096439;28;20849;-65
2023/08/17 00:57:57;;;;;;;6.00;3.10;;;;;;;;;;5095695;28;20450;-64
2023/08/17 01:00:25;;;;;;;7.80;3.37;;;;;;;;;;5096802;28;20525;-65
2023/08/17 01:02:52;;;;;;;5.83;3.67;;;;;;;;;;5095905;28;20546;-65
2023/08/17 01:05:20;;;;;;;5.13;2.80;;;;;;;;;;5096033;28;20929;-65
2023/08/17 01:07:47;;;;;;;7.70;3.33;;;;;;;;;;5095654;28;20441;-64
2023/08/17 01:10:14;;;;;;;10.10;3.00;;;;;;;;;;5095713;28;20471;-64
2023/08/17 01:12:45;;;;;;;5.83;3.00;;;;;;;;;;5096005;28;20435;-65
2023/08/17 01:15:17;;;;;;;5.87;3.50;;;;;;;;;;5096555;28;20432;-64
2023/08/17 01:17:45;;;;;;;5.00;2.70;;;;;;;;;;5096074;28;20462;-64
2023/08/17 01:20:16;;;;;;;3.50;2.70;;;;;;;;;;5095794;28;20443;-64
2023/08/17 01:22:43;;;;;;;5.93;3.50;;;;;;;;;;5095770;28;20500;-65
2023/08/17 01:25:12;;;;;;;4.10;2.80;;;;;;;;;;5095560;28;20483;-65
2023/08/17 01:27:40;;;;;;;4.67;2.63;;;;;;;;;;5095551;28;20444;-65
2023/08/17 01:30:08;;;;;;;6.33;2.67;;;;;;;;;;5095735;28;20442;-64
2023/08/17 01:32:39;;;;;;;5.00;2.90;;;;;;;;;;5095748;28;20466;-64
2023/08/17 01:35:10;;;;;;;8.63;3.00;;;;;;;;;;5095068;28;20459;-65
2023/08/17 01:37:39;;;;;;;6.07;2.50;;;;;;;;;;5095592;28;20507;-65
2023/08/17 01:40:08;;;;;;;13.90;3.60;;;;;;;;;;5095661;28;20534;-64
2023/08/17 01:42:37;;;;;;;5.27;2.60;;;;;;;;;;5094917;28;20917;-64
2023/08/17 01:45:04;;;;;;;5.90;2.90;;;;;;;;;;5094900;28;20517;-64
2023/08/17 01:47:31;;;;;;;8.47;3.20;;;;;;;;;;5095097;28;20437;-64
2023/08/17 01:49:59;;;;;;;4.63;3.00;;;;;;;;;;5094993;28;20877;-65
2023/08/17 01:52:28;;;;;;;5.53;3.20;;;;;;;;;;5095270;28;20438;-65
2023/08/17 01:54:55;;;;;;;4.93;3.50;;;;;;;;;;5095825;28;20475;-65
2023/08/17 01:57:22;;;;;;;7.77;3.93;;;;;;;;;;5095154;28;20852;-65
2023/08/17 01:59:51;;;;;;;5.97;3.70;;;;;;;;;;5094907;28;20467;-65
2023/08/17 02:02:18;;;;;;;10.20;3.90;;;;;;;;;;5095061;28;20962;-65
2023/08/17 02:04:45;;;;;;;4.53;3.47;;;;;;;;;;5095046;28;20502;-65
2023/08/17 02:07:12;;;;;;;5.03;3.57;;;;;;;;;;5094743;28;20937;-65
2023/08/17 02:09:40;;;;;;;13.43;4.23;;;;;;;;;;5095300;28;20442;-65
2023/08/17 02:12:08;;;;;;;12.03;3.70;;;;;;;;;;5094950;28;20442;-65
2023/08/17 02:14:35;;;;;;;7.53;3.60;;;;;;;;;;5094349;28;20508;-65
2023/08/17 02:17:05;;;;;;;6.20;3.80;;;;;;;;;;5094493;28;20864;-64
2023/08/17 02:19:32;;;;;;;9.53;4.40;;;;;;;;;;5094849;28;20766;-64
2023/08/17 02:21:59;;;;;;;7.20;4.00;;;;;;;;;;5094358;28;20442;-64
2023/08/17 02:24:27;;;;;;;3.60;3.30;;;;;;;;;;5095048;28;20443;-64
2023/08/17 02:26:54;;;;;;;6.00;4.07;;;;;;;;;;5094246;28;20574;-64
2023/08/17 02:29:21;;;;;;;7.67;4.57;;;;;;;;;;5094769;28;20465;-64
2023/08/17 02:31:48;;;;;;;6.77;4.03;;;;;;;;;;5094596;28;20993;-64
2023/08/17 02:34:17;;;;;;;7.63;4.43;;;;;;;;;;5094533;28;20514;-64
2023/08/17 02:36:44;;;;;;;6.30;4.13;;;;;;;;;;5093945;28;20454;-64
2023/08/17 02:39:11;;;;;;;8.70;4.60;;;;;;;;;;5094632;28;20799;-64
2023/08/17 02:41:39;;;;;;;6.90;4.53;;;;;;;;;;5093950;28;20465;-64
2023/08/17 02:44:06;;;;;;;9.87;5.10;;;;;;;;;;5094239;28;20846;-64
2023/08/17 02:46:33;;;;;;;9.10;4.47;;;;;;;;;;5093108;28;20937;-64
2023/08/17 02:49:00;;;;;;;5.20;4.20;;;;;;;;;;5093479;28;20527;-64
2023/08/17 02:51:29;;;;;;;6.73;4.37;;;;;;;;;;5093978;28;20522;-64
2023/08/17 02:53:56;;;;;;;8.17;4.17;;;;;;;;;;5093554;28;20483;-64
2023/08/17 02:56:23;;;;;;;5.03;4.47;;;;;;;;;;5093649;28;20442;-64
2023/08/17 02:58:51;;;;;;;8.40;4.80;;;;;;;;;;5093497;28;20518;-64
2023/08/17 03:01:18;;;;;;;10.20;4.60;;;;;;;;;;5093495;28;20478;-64
2023/08/17 03:03:45;;;;;;;6.30;4.27;;;;;;;;;;5093851;28;20501;-64
2023/08/17 03:06:12;;;;;;;10.50;5.03;;;;;;;;;;5094031;28;20478;-64
2023/08/17 03:08:41;;;;;;;6.70;4.67;;;;;;;;;;5093618;28;20430;-64
2023/08/17 03:11:09;;;;;;;7.53;4.90;;;;;;;;;;5093593;28;20431;-64
2023/08/17 03:13:37;;;;;;;6.47;5.17;;;;;;;;;;5094133;28;20467;-64
2023/08/17 03:16:04;;;;;;;6.20;4.53;;;;;;;;;;5093578;28;20452;-64
2023/08/17 03:18:31;;;;;;;7.00;5.53;;;;;;;;;;5093734;28;20483;-64
2023/08/17 03:20:58;;;;;;;11.03;4.70;;;;;;;;;;5093630;28;20444;-64
2023/08/17 03:23:25;;;;;;;6.00;4.53;;;;;;;;;;5093107;28;20486;-64
2023/08/17 03:25:55;;;;;;;6.70;4.60;;;;;;;;;;5093656;28;20478;-64
2023/08/17 03:28:22;;;;;;;11.60;5.80;;;;;;;;;;5093390;28;20529;-64
2023/08/17 03:30:49;;;;;;;6.50;4.80;;;;;;;;;;5093180;28;20486;-64
2023/08/17 03:33:16;;;;;;;9.87;4.60;;;;;;;;;;5093069;28;20801;-64
2023/08/17 03:35:44;;;;;;;9.63;5.10;;;;;;;;;;5093090;28;20455;-64
2023/08/17 03:38:11;;;;;;;7.43;5.33;;;;;;;;;;5093228;28;20544;-64
2023/08/17 03:40:38;;;;;;;11.17;5.27;;;;;;;;;;5092857;28;20440;-64
2023/08/17 03:43:07;;;;;;;8.40;5.57;;;;;;;;;;5093004;28;20904;-64
2023/08/17 03:45:34;;;;;;;10.57;5.20;;;;;;;;;;5093072;28;20566;-64
2023/08/17 03:48:01;;;;;;;6.40;4.67;;;;;;;;;;5093464;28;20546;-64
2023/08/17 03:50:29;;;;;;;9.00;5.73;;;;;;;;;;5093137;28;20437;-64
2023/08/17 03:52:56;;;;;;;6.73;5.07;;;;;;;;;;5093183;28;20481;-64
2023/08/17 03:55:24;;;;;;;9.33;5.10;;;;;;;;;;5089643;28;20519;-64
2023/08/17 03:57:51;;;;;;;6.00;5.20;;;;;;;;;;5071004;28;20450;-64
2023/08/17 04:00:19;;;;;;;7.23;5.13;;;;;;;;;;5072105;28;20537;-64
2023/08/17 04:02:47;;;;;;;5.23;4.67;;;;;;;;;;5071952;28;20638;-64
2023/08/17 04:05:14;;;;;;;7.27;5.20;;;;;;;;;;5072106;28;20443;-64
2023/08/17 04:07:41;;;;;;;6.27;5.33;;;;;;;;;;5072693;28;20531;-64
2023/08/17 04:10:09;;;;;;;5.53;4.90;;;;;;;;;;5072272;28;20442;-64
2023/08/17 04:12:36;;;;;;;7.10;4.60;;;;;;;;;;5072403;28;20457;-64
2023/08/17 04:15:04;;;;;;;7.03;4.67;;;;;;;;;;5072519;28;20538;-63
2023/08/17 04:17:32;;;;;;;8.30;5.00;;;;;;;;;;5072526;28;20534;-64
2023/08/17 04:19:59;;;;;;;11.90;5.47;;;;;;;;;;5072128;28;20534;-64
2023/08/17 04:22:27;;;;;;;9.23;5.50;;;;;;;;;;5072976;28;20450;-64
2023/08/17 04:24:54;;;;;;;5.63;5.07;;;;;;;;;;5072241;28;20539;-64
2023/08/17 04:27:21;;;;;;;7.37;6.00;;;;;;;;;;5086614;28;20480;-65
2023/08/17 04:29:48;;;;;;;9.43;5.60;;;;;;;;;;5092401;28;20533;-64
2023/08/17 04:32:16;;;;;;;6.97;5.50;;;;;;;;;;5092312;28;20957;-64
2023/08/17 04:34:45;;;;;;;8.73;6.33;;;;;;;;;;5092622;28;20454;-65
2023/08/17 04:37:13;;;;;;;13.40;7.00;;;;;;;;;;5092587;28;20538;-71
2023/08/17 04:39:40;;;;;;;10.27;5.67;;;;;;;;;;5092739;28;20446;-64
2023/08/17 04:42:08;;;;;;;7.33;5.80;;;;;;;;;;5092252;28;20445;-64
2023/08/17 04:44:35;;;;;;;13.90;7.03;;;;;;;;;;5092551;28;20514;-64
2023/08/17 04:47:02;;;;;;;9.10;6.20;;;;;;;;;;5092533;28;20559;-64
2023/08/17 04:49:29;;;;;;;7.17;6.00;;;;;;;;;;5091939;28;20534;-64
2023/08/17 04:51:58;;;;;;;12.67;6.00;;;;;;;;;;5092725;28;20789;-65
2023/08/17 04:54:25;;;;;;;8.30;6.03;;;;;;;;;;5092744;28;20467;-65
2023/08/17 04:56:52;;;;;;;7.00;6.30;;;;;;;;;;5092240;28;20546;-64
2023/08/17 04:59:19;;;;;;;6.40;5.73;;;;;;;;;;5092476;28;20469;-64
2023/08/17 05:01:47;;;;;;;9.57;5.80;;;;;;;;;;5092507;28;20478;-64
2023/08/17 05:04:14;;;;;;;12.83;6.13;;;;;;;;;;5092293;28;20497;-64
2023/08/17 05:06:42;;;;;;;6.90;5.17;;;;;;;;;;5092393;28;20560;-64
2023/08/17 05:09:11;;;;;;;8.47;6.37;;;;;;;;;;5093470;28;20936;-64
2023/08/17 05:11:38;;;;;;;8.20;4.97;;;;;;;;;;5095789;28;20514;-64
2023/08/17 05:14:05;;;;;;;14.37;5.50;;;;;;;;;;5095932;28;20526;-64
2023/08/17 05:16:32;;;;;;;9.60;5.30;;;;;;;;;;5096164;28;20443;-64
2023/08/17 05:19:00;;;;;;;10.20;6.57;;;;;;;;;;5096016;28;20533;-65
2023/08/17 05:21:27;;;;;;;7.50;5.60;;;;;;;;;;5095761;28;20834;-64
2023/08/17 05:23:54;;;;;;;17.23;6.07;;;;;;;;;;5095047;28;20543;-64
2023/08/17 05:26:23;;;;;;;8.43;4.97;;;;;;;;;;5095132;28;20474;-64
2023/08/17 05:28:50;;;;;;;8.67;6.00;;;;;;;;;;5095697;28;20532;-64
2023/08/17 05:31:17;;;;;;;8.93;6.23;;;;;;;;;;5095527;28;20973;-64
2023/08/17 05:33:44;;;;;;;12.97;6.03;;;;;;;;;;5095660;28;20918;-64
2023/08/17 05:36:13;;;;;;;8.70;4.90;;;;;;;;;;5095431;28;20495;-64
2023/08/17 05:38:40;;;;;;;8.80;6.17;;;;;;;;;;5095317;28;20530;-64
2023/08/17 05:41:07;;;;;;;10.40;5.90;;;;;;;;;;5095022;28;21019;-64
2023/08/17 05:43:36;;;;;;;9.60;5.63;;;;;;;;;;5095075;28;20473;-64
2023/08/17 05:46:03;;;;;;;6.63;6.03;;;;;;;;;;5094928;28;20488;-64
2023/08/17 05:48:31;;;;;;;8.03;5.50;;;;;;;;;;5094908;28;20468;-64
2023/08/17 05:50:58;;;;;;;8.50;5.77;;;;;;;;;;5094937;28;20446;-64
2023/08/17 05:53:25;;;;;;;9.23;6.60;;;;;;;;;;5095079;28;20566;-64
2023/08/17 05:55:52;;;;;;;8.73;5.40;;;;;;;;;;5095089;28;20470;-64
2023/08/17 05:58:20;;;;;;;10.37;5.17;;;;;;;;;;5094899;28;20482;-64
2023/08/17 06:00:49;;;;;;;6.73;5.50;;;;;;;;;;5095408;28;20479;-64
2023/08/17 06:03:16;;;;;;;8.67;5.27;;;;;;;;;;5094940;28;20447;-64
2023/08/17 06:05:44;;;;;;;12.23;5.60;;;;;;;;;;5094602;28;20447;-64
2023/08/17 06:08:11;;;;;;;8.80;5.40;;;;;;;;;;5095012;28;20526;-64
2023/08/17 06:10:38;;;;;;;9.00;5.97;;;;;;;;;;5094748;28;20471;-65
2023/08/17 06:13:05;;;;;;;8.10;5.70;;;;;;;;;;5094608;28;20439;-65
2023/08/17 06:15:32;;;;;;;11.10;6.60;;;;;;;;;;5094458;28;20469;-62
2023/08/17 06:18:01;;;;;;;7.07;4.50;;;;;;;;;;5094850;28;20490;-64
2023/08/17 06:20:28;;;;;;;9.10;5.43;;;;;;;;;;5094604;28;20489;-65
2023/08/17 06:22:55;;;;;;;15.23;6.37;;;;;;;;;;5094817;28;20551;-65
2023/08/17 06:25:23;;;;;;;6.60;6.00;;;;;;;;;;5094372;28;20476;-65
2023/08/17 06:27:50;;;;;;;16.40;7.80;;;;;;;;;;5094467;28;20550;-65
2023/08/17 06:30:18;;;;;;;12.90;6.10;;;;;;;;;;5095044;28;20537;-65
2023/08/17 06:32:45;;;;;;;8.57;5.70;;;;;;;;;;5095316;28;20470;-65
2023/08/17 06:35:13;;;;;;;11.30;5.03;;;;;;;;;;5094097;28;21019;-65
2023/08/17 06:37:41;;;;;;;6.63;5.83;;;;;;;;;;5094103;28;20808;-65
2023/08/17 06:40:10;;;;;;;7.37;5.27;;;;;;;;;;5094533;28;20480;-65
2023/08/17 06:42:37;;;;;;;7.40;4.93;;;;;;;;;;5094044;28;21019;-65
2023/08/17 06:45:05;;;;;;;5.97;5.10;;;;;;;;;;5094301;28;20533;-65
2023/08/17 06:47:32;;;;;;;11.30;6.50;;;;;;;;;;5094216;28;20478;-64
2023/08/17 06:49:59;;;;;;;6.60;5.00;;;;;;;;;;5093893;28;20441;-64
2023/08/17 06:52:27;;;;;;;10.47;5.07;;;;;;;;;;5093788;28;20871;-65
2023/08/17 06:54:55;;;;;;;14.07;6.10;;;;;;;;;;5094462;28;20474;-65
2023/08/17 06:57:22;;;;;;;7.90;5.13;;;;;;;;;;5094058;28;20881;-64
2023/08/17 06:59:49;;;;;;;10.17;6.07;;;;;;;;;;5093953;28;20447;-64
2023/08/17 07:02:17;;;;;;;7.27;4.97;;;;;;;;;;5093674;28;20441;-64
2023/08/17 07:04:44;;;;;;;9.33;5.23;;;;;;;;;;5093937;28;20512;-65
2023/08/17 07:07:11;;;;;;;9.73;5.97;;;;;;;;;;5093541;28;20478;-64
2023/08/17 07:09:40;;;;;;;12.37;5.37;;;;;;;;;;5094137;28;20454;-64
2023/08/17 07:12:07;;;;;;;9.30;5.30;;;;;;;;;;5093702;28;20438;-65
2023/08/17 07:14:35;;;;;;;13.40;5.50;;;;;;;;;;5093507;28;20523;-64
2023/08/17 07:17:02;;;;;;;17.23;6.23;;;;;;;;;;5093660;28;20435;-63
2023/08/17 07:19:29;;;;;;;8.03;5.70;;;;;;;;;;5093301;28;20461;-63
2023/08/17 07:21:56;;;;;;;24.00;6.50;;;;;;;;;;5093198;28;20939;-64
2023/08/17 07:24:23;;;;;;;15.60;6.70;;;;;;;;;;5093306;28;20758;-64
2023/08/17 07:26:52;;;;;;;8.80;5.57;;;;;;;;;;5093344;28;20475;-64
2023/08/17 07:29:19;;;;;;;6.90;5.60;;;;;;;;;;5093458;28;20432;-64
2023/08/17 07:31:46;;;;;;;11.80;5.80;;;;;;;;;;5092860;28;20444;-64
2023/08/17 07:34:13;;;;;;;12.37;6.10;;;;;;;;;;5093319;28;20440;-64
2023/08/17 07:36:41;;;;;;;7.63;5.70;;;;;;;;;;5092956;28;20455;-64
2023/08/17 07:39:08;;;;;;;13.87;7.40;;;;;;;;;;5092855;28;20636;-64
2023/08/17 07:41:35;;;;;;;9.70;8.30;;;;;;;;;;5093545;28;20913;-64
2023/08/17 07:44:04;;;;;;;9.37;6.60;;;;;;;;;;5093668;28;20515;-63
2023/08/17 07:46:31;;;;;;;9.50;5.83;;;;;;;;;;5093404;28;20437;-64
2023/08/17 07:48:58;;;;;;;8.50;6.23;;;;;;;;;;5093438;28;20446;-64
2023/08/17 07:51:25;;;;;;;7.43;6.33;;;;;;;;;;5092645;28;20435;-64
2023/08/17 07:53:52;;;;;;;13.30;7.30;;;;;;;;;;5092796;28;20569;-64
2023/08/17 07:56:20;;;;;;;12.77;7.20;;;;;;;;;;5093148;28;20519;-64
2023/08/17 07:58:47;;;;;;;7.70;6.90;;;;;;;;;;5092893;28;20529;-64
2023/08/17 08:01:15;;;;;;;9.37;6.90;;;;;;;;;;5092831;28;20538;-64
2023/08/17 08:03:43;;;;;;;11.70;7.27;;;;;;;;;;5093322;28;20789;-64
2023/08/17 08:06:10;;;;;;;10.03;6.87;;;;;;;;;;5093253;28;20432;-64
2023/08/17 08:08:37;;;;;;;8.83;6.57;;;;;;;;;;5093018;28;20567;-64
2023/08/17 08:11:05;;;;;;;7.77;7.07;;;;;;;;;;5092746;28;20531;-64
2023/08/17 08:13:32;;;;;;;29.13;22.97;;;;;;;;;;5092651;28;20440;-64
2023/08/17 08:16:00;;;;;;;12.23;9.73;;;;;;;;;;5092644;28;20530;-64
2023/08/17 08:18:28;;;;;;;9.40;7.50;;;;;;;;;;5092808;28;20452;-64
2023/08/17 08:20:55;;;;;;;11.07;6.60;;;;;;;;;;5092530;28;20527;-63
2023/08/17 08:23:23;;;;;;;15.97;8.73;;;;;;;;;;5092806;28;20930;-63
2023/08/17 08:25:50;;;;;;;18.33;8.90;;;;;;;;;;5092767;28;20542;-63
2023/08/17 08:28:17;;;;;;;9.90;7.70;;;;;;;;;;5092723;28;20481;-65
2023/08/17 08:30:44;;;;;;;13.40;8.77;;;;;;;;;;5092545;28;20471;-64
2023/08/17 08:33:11;;;;;;;12.50;9.40;;;;;;;;;;5092719;28;20801;-64
2023/08/17 08:35:40;;;;;;;13.33;8.57;;;;;;;;;;5092963;28;20444;-64
2023/08/17 08:38:07;;;;;;;13.07;8.77;;;;;;;;;;5092477;28;20447;-64
2023/08/17 08:40:34;;;;;;;13.90;9.03;;;;;;;;;;5093328;28;20457;-65
2023/08/17 08:43:02;;;;;;;14.10;9.20;;;;;;;;;;5093056;28;20954;-65
2023/08/17 08:45:29;;;;;;;9.57;8.10;;;;;;;;;;5096618;28;20567;-65
2023/08/17 08:47:58;;;;;;;9.90;8.90;;;;;;;;;;5096848;28;20972;-65
2023/08/17 08:50:27;;;;;;;12.03;8.70;;;;;;;;;;5096652;28;20475;-65
2023/08/17 08:53:00;;;;;;;16.00;9.80;;;;;;;;;;5096096;28;20530;-64
2023/08/17 08:55:28;;;;;;;13.83;8.53;;;;;;;;;;5096823;28;20435;-65
2023/08/17 08:57:56;;;;;;;10.80;8.27;;;;;;;;;;5096154;28;20552;-64
2023/08/17 09:00:24;;;;;;;11.57;8.97;;;;;;;;;;5096570;28;20539;-64
2023/08/17 09:02:52;;;;;;;11.33;9.83;;;;;;;;;;5096254;28;20462;-64
2023/08/17 09:05:19;;;;;;;12.40;9.80;;;;;;;;;;5096011;28;20442;-65
2023/08/17 09:07:46;;;;;;;10.03;8.87;;;;;;;;;;5096153;28;20511;-65
2023/08/17 09:10:16;;;;;;;9.87;8.90;;;;;;;;;;5096133;28;20434;-65
2023/08/17 09:12:43;;;;;;;17.03;11.40;;;;;;;;;;5096170;28;20500;-65
2023/08/17 09:15:11;;;;;;;12.20;10.90;;;;;;;;;;5096585;28;20442;-65
2023/08/17 09:17:38;;;;;;;16.23;10.30;;;;;;;;;;5095809;28;20974;-65
2023/08/17 09:20:07;;;;;;;19.30;10.10;;;;;;;;;;5095883;28;20539;-65
2023/08/17 09:22:41;;;;;;;11.60;9.60;;;;;;;;;;5095513;28;20483;-65
2023/08/17 09:25:08;;;;;;;12.87;9.13;;;;;;;;;;5096156;28;20453;-65
2023/08/17 09:27:37;;;;;;;14.23;8.90;;;;;;;;;;5095581;28;20479;-65
2023/08/17 09:30:06;;;;;;;10.27;9.03;;;;;;;;;;5095616;28;20514;-65
2023/08/17 09:32:33;;;;;;;12.93;8.93;;;;;;;;;;5095522;28;20447;-65
2023/08/17 09:35:07;;;;;;;19.33;9.90;;;;;;;;;;5095709;28;20483;-65
2023/08/17 09:37:35;;;;;;;13.67;9.40;;;;;;;;;;5096369;28;20446;-65
2023/08/17 09:40:02;;;;;;;10.07;9.07;;;;;;;;;;5095720;28;20493;-65
2023/08/17 09:42:31;;;;;;;11.60;10.07;;;;;;;;;;5095566;28;20514;-65
2023/08/17 09:45:00;;;;;;;11.93;9.37;;;;;;;;;;5095307;28;20471;-65
2023/08/17 09:47:28;;;;;;;10.80;9.57;;;;;;;;;;5095997;28;20482;-65
2023/08/17 09:49:55;;;;;;;11.13;9.10;;;;;;;;;;5095117;28;20469;-65
2023/08/17 09:52:23;;;;;;;10.43;9.43;;;;;;;;;;5095330;28;20591;-65
2023/08/17 09:54:51;;;;;;;15.47;9.13;;;;;;;;;;5094636;28;20485;-65
2023/08/17 09:57:19;;;;;;;15.40;11.47;;;;;;;;;;5095678;28;20448;-65
2023/08/17 09:59:46;;;;;;;14.87;10.43;;;;;;;;;;5094806;28;21002;-64
2023/08/17 10:02:19;;;;;;;15.80;10.33;;;;;;;;;;5095379;28;20436;-64
2023/08/17 10:04:49;;;;;;;17.00;10.13;;;;;;;;;;5094762;28;20416;-65
2023/08/17 10:07:17;;;;;;;13.80;10.90;;;;;;;;;;5095421;28;20426;-64
2023/08/17 10:09:45;;;;;;;20.13;10.97;;;;;;;;;;5095071;28;20463;-64
2023/08/17 10:12:13;;;;;;;13.37;10.77;;;;;;;;;;5095145;28;20443;-64
2023/08/17 10:14:46;;;;;;;12.40;10.90;;;;;;;;;;5094858;28;20991;-65
2023/08/17 10:17:15;;;;;;;16.33;11.50;;;;;;;;;;5095625;28;20493;-65
2023/08/17 10:19:51;;;;;;;13.17;11.77;;;;;;;;;;5094938;28;20547;-64
2023/08/17 10:22:20;;;;;;;13.73;12.43;;;;;;;;;;5095280;28;20430;-64
2023/08/17 10:24:48;;;;;;;17.30;12.40;;;;;;;;;;5094855;28;20813;-65
2023/08/17 10:27:15;;;;;;;13.77;11.60;;;;;;;;;;5094958;28;20440;-64
2023/08/17 10:29:43;;;;;;;19.73;9.97;;;;;;;;;;5094719;28;20527;-65
2023/08/17 10:32:11;;;;;;;14.43;12.43;;;;;;;;;;5094709;28;20436;-65
2023/08/17 10:34:39;;;;;;;13.97;11.77;;;;;;;;;;5094580;28;20470;-65
2023/08/17 10:37:08;;;;;;;16.77;12.50;;;;;;;;;;5095327;28;20800;-64
2023/08/17 10:39:39;;;;;;;12.80;11.50;;;;;;;;;;5094524;28;20440;-64
2023/08/17 10:42:06;;;;;;;13.53;10.97;;;;;;;;;;5094845;28;20432;-64
2023/08/17 10:44:41;;;;;;;14.03;11.17;;;;;;;;;;5094329;28;20432;-64
2023/08/17 10:47:20;;;;;;;15.10;10.00;;;;;;;;;;5094928;28;20444;-64
2023/08/17 10:49:49;;;;;;;11.60;10.37;;;;;;;;;;5094239;28;20447;-64
2023/08/17 10:52:26;;;;;;;24.80;15.50;;;;;;;;;;5093905;28;20439;-64
2023/08/17 10:54:53;;;;;;;17.07;14.33;;;;;;;;;;5094356;28;20460;-64
2023/08/17 10:57:29;;;;;;;13.80;10.67;;;;;;;;;;5093783;28;20930;-64
2023/08/17 11:00:16;;;;;;;15.83;10.53;;;;;;;;;;5093723;28;20451;-64
2023/08/17 11:02:45;;;;;;;11.87;10.67;;;;;;;;;;5094184;28;20437;-64
2023/08/17 11:05:13;;;;;;;14.90;11.00;;;;;;;;;;5093884;28;20432;-64
2023/08/17 11:07:43;;;;;;;14.90;10.77;;;;;;;;;;5093076;28;20522;-64
2023/08/17 11:10:14;;;;;;;18.80;11.87;;;;;;;;;;5093696;28;20432;-64
2023/08/17 11:12:43;;;;;;;22.00;11.37;;;;;;;;;;5093811;28;21000;-64
2023/08/17 11:15:10;;;;;;;12.37;10.93;;;;;;;;;;5093491;28;20592;-64
2023/08/17 11:17:37;;;;;;;17.33;9.93;;;;;;;;;;5094018;28;20435;-65
2023/08/17 11:20:05;;;;;;;13.67;11.10;;;;;;;;;;5093452;28;20866;-65
2023/08/17 11:22:33;;;;;;;16.97;14.37;;;;;;;;;;5093568;28;20443;-64
2023/08/17 11:25:02;;;;;;;14.70;11.70;;;;;;;;;;5093840;28;20443;-65
2023/08/17 11:27:32;;;;;;;17.37;11.33;;;;;;;;;;5093794;28;20439;-65
2023/08/17 11:29:59;;;;;;;15.17;12.27;;;;;;;;;;5093466;28;20428;-65
2023/08/17 11:32:26;;;;;;;17.13;12.20;;;;;;;;;;5093147;28;20443;-65
2023/08/17 11:34:53;;;;;;;14.50;12.97;;;;;;;;;;5093130;28;20435;-67
2023/08/17 11:37:23;;;;;;;15.10;12.83;;;;;;;;;;5093473;28;20526;-67
2023/08/17 11:39:50;;;;;;;23.60;13.77;;;;;;;;;;5093389;28;20440;-67
2023/08/17 11:42:19;;;;;;;16.13;12.40;;;;;;;;;;5093371;28;20439;-68
2023/08/17 11:44:46;;;;;;;15.03;12.53;;;;;;;;;;5093359;28;20471;-67
2023/08/17 11:47:13;;;;;;;16.70;13.77;;;;;;;;;;5092894;28;20935;-68
2023/08/17 11:49:40;;;;;;;149.67;22.80;;;;;;;;;;5093041;28;20487;-69
2023/08/17 11:52:10;;;;;;;18.70;13.07;;;;;;;;;;5093234;28;20530;-67
2023/08/17 11:54:41;;;;;;;24.50;14.00;;;;;;;;;;5092966;28;20957;-67
2023/08/17 11:57:08;;;;;;;20.17;13.40;;;;;;;;;;5093273;28;20420;-67
2023/08/17 11:59:37;;;;;;;17.00;14.07;;;;;;;;;;5093449;28;20460;-67
2023/08/17 12:02:04;;;;;;;20.83;14.70;;;;;;;;;;5093251;28;20531;-67
2023/08/17 12:04:34;;;;;;;19.83;12.90;;;;;;;;;;5091375;28;20535;-67
2023/08/17 12:07:01;;;;;;;15.80;13.90;;;;;;;;;;5092336;28;20783;-67
2023/08/17 12:09:28;;;;;;;19.87;14.10;;;;;;;;;;5092355;28;20480;-67
2023/08/17 12:12:01;;;;;;;22.13;15.93;;;;;;;;;;5092521;28;20444;-67
2023/08/17 12:14:28;;;;;;;16.53;14.93;;;;;;;;;;5093112;28;20531;-67
2023/08/17 12:16:57;;;;;;;16.77;14.97;;;;;;;;;;5092542;28;20896;-67
2023/08/17 12:19:26;;;;;;;17.47;15.63;;;;;;;;;;5096712;28;20445;-67
2023/08/17 12:21:53;;;;;;;17.17;15.43;;;;;;;;;;5097217;28;20446;-68
2023/08/17 12:24:20;;;;;;;19.20;14.30;;;;;;;;;;5097427;28;20980;-68
2023/08/17 12:26:48;;;;;;;18.73;15.90;;;;;;;;;;5096318;28;20538;-68
2023/08/17 12:29:15;;;;;;;17.53;15.50;;;;;;;;;;5096358;28;20570;-67
2023/08/17 12:31:42;;;;;;;20.50;14.57;;;;;;;;;;5096789;28;20489;-67
2023/08/17 12:34:11;;;;;;;18.70;15.00;;;;;;;;;;5097163;28;20524;-68
2023/08/17 12:36:38;;;;;;;22.23;15.03;;;;;;;;;;5096498;28;20948;-66
2023/08/17 12:39:06;;;;;;;18.07;15.57;;;;;;;;;;5096681;28;20447;-67
2023/08/17 12:41:33;;;;;;;17.50;15.63;;;;;;;;;;5096344;28;20431;-68
2023/08/17 12:44:01;;;;;;;19.43;14.90;;;;;;;;;;5096799;28;20904;-67
2023/08/17 12:46:32;;;;;;;19.50;15.63;;;;;;;;;;5083310;28;20450;-67
2023/08/17 12:48:59;;;;;;;18.27;16.37;;;;;;;;;;5075917;28;20533;-67
2023/08/17 12:51:28;;;;;;;18.90;15.87;;;;;;;;;;5076123;28;20438;-67
2023/08/17 12:53:55;;;;;;;17.60;15.90;;;;;;;;;;5076039;28;20474;-68
2023/08/17 12:56:23;;;;;;;17.17;15.67;;;;;;;;;;5075903;28;20498;-68
2023/08/17 12:58:50;;;;;;;15.50;14.10;;;;;;;;;;5076086;28;20890;-67
2023/08/17 13:01:18;;;;;;;19.53;14.27;;;;;;;;;;5075922;28;20555;-67
2023/08/17 13:03:45;;;;;;;16.90;15.30;;;;;;;;;;5075823;28;20437;-67
2023/08/17 13:06:13;;;;;;;16.53;14.87;;;;;;;;;;5075809;28;20797;-67
2023/08/17 13:08:41;;;;;;;16.90;15.20;;;;;;;;;;5075873;28;20513;-67
2023/08/17 13:11:08;;;;;;;16.40;14.80;;;;;;;;;;5075369;28;20436;-67
2023/08/17 13:13:36;;;;;;;18.93;17.03;;;;;;;;;;5075556;28;20993;-67
2023/08/17 13:16:03;;;;;;;18.93;16.37;;;;;;;;;;5075334;28;20432;-67
2023/08/17 13:18:30;;;;;;;19.53;17.40;;;;;;;;;;5076149;28;20456;-67
2023/08/17 13:20:57;;;;;;;17.43;15.47;;;;;;;;;;5075558;28;20550;-67
2023/08/17 13:23:25;;;;;;;18.13;15.90;;;;;;;;;;5075253;28;20452;-67
2023/08/17 13:25:53;;;;;;;17.90;16.17;;;;;;;;;;5075537;28;20467;-67
2023/08/17 13:28:20;;;;;;;18.90;17.00;;;;;;;;;;5075159;28;20480;-67
2023/08/17 13:30:48;;;;;;;18.73;17.00;;;;;;;;;;5074429;28;20858;-67
2023/08/17 13:33:16;;;;;;;18.57;16.60;;;;;;;;;;5080097;28;20501;-67
2023/08/17 13:35:43;;;;;;;17.43;15.33;;;;;;;;;;5095010;28;20937;-67
2023/08/17 13:38:10;;;;;;;16.00;14.20;;;;;;;;;;5095647;28;20463;-67
2023/08/17 13:40:39;;;;;;;14.57;13.20;;;;;;;;;;5095375;28;20443;-67
2023/08/17 13:43:11;;;;;;;15.33;13.50;;;;;;;;;;5095436;28;20444;-67
2023/08/17 13:45:39;;;;;;;14.70;13.20;;;;;;;;;;5095626;28;20435;-67
2023/08/17 13:48:07;;;;;;;15.80;12.90;;;;;;;;;;5095020;28;20442;-67
2023/08/17 13:50:34;;;;;;;13.07;11.60;;;;;;;;;;5095449;28;20572;-67
2023/08/17 13:53:01;;;;;;;14.03;10.77;;;;;;;;;;5095000;28;20447;-67
2023/08/17 13:55:29;;;;;;;13.87;12.47;;;;;;;;;;5094939;28;20436;-67
2023/08/17 13:57:56;;;;;;;12.77;11.53;;;;;;;;;;5094857;28;20436;-67
2023/08/17 14:00:25;;;;;;;13.67;12.07;;;;;;;;;;5095324;28;20451;-67
2023/08/17 14:02:52;;;;;;;12.83;11.60;;;;;;;;;;5095072;28;20543;-68
2023/08/17 14:05:19;;;;;;;13.70;12.33;;;;;;;;;;5095499;28;20984;-67
2023/08/17 14:07:46;;;;;;;14.47;12.50;;;;;;;;;;5094639;28;20437;-67
2023/08/17 14:10:14;;;;;;;16.70;15.00;;;;;;;;;;5094725;28;20491;-67
2023/08/17 14:12:41;;;;;;;17.27;13.97;;;;;;;;;;5094896;28;20802;-67
2023/08/17 14:15:09;;;;;;;26.03;18.60;;;;;;;;;;5094773;28;20451;-67
2023/08/17 14:17:37;;;;;;;22.00;19.37;;;;;;;;;;5094261;28;20929;-67
2023/08/17 14:20:05;;;;;;;21.30;17.90;;;;;;;;;;5094829;28;20446;-67
2023/08/17 14:22:32;;;;;;;21.27;19.23;;;;;;;;;;5094338;28;20929;-67
2023/08/17 14:25:00;;;;;;;21.90;19.57;;;;;;;;;;5094647;28;20832;-67
2023/08/17 14:27:27;;;;;;;24.23;21.83;;;;;;;;;;5094261;28;20436;-67
2023/08/17 14:29:54;;;;;;;22.77;18.13;;;;;;;;;;5094663;28;20495;-67
2023/08/17 14:32:21;;;;;;;23.20;20.90;;;;;;;;;;5094741;28;20518;-67
2023/08/17 14:34:50;;;;;;;20.40;18.30;;;;;;;;;;5094441;28;20515;-67